sensor_id;sensor_type;location;lat;lon;timestamp;temperature;humidity
20672;DHT22;10495;50.922;4.760;2023-10-09T00:02:21;18.20;88.30
20672;DHT22;10495;50.922;4.760;2023-10-09T00:04:48;18.30;87.90
20672;DHT22;10495;50.922;4.760;2023-10-09T00:07:17;18.30;87.70
20672;DHT22;10495;50.922;4.760;2023-10-09T00:09:42;18.20;88.00
20672;DHT22;10495;50.922;4.760;2023-10-09T00:12:19;18.10;88.10
20672;DHT22;10495;50.922;4.760;2023-10-09T00:14:49;18.10;88.30
20672;DHT22;10495;50.922;4.760;2023-10-09T00:17:19;18.00;88.60
20672;DHT22;10495;50.922;4.760;2023-10-09T00:19:45;18.00;88.70
20672;DHT22;10495;50.922;4.760;2023-10-09T00:22:13;18.00;88.70
20672;DHT22;10495;50.922;4.760;2023-10-09T00:24:57;18.00;88.60
20672;DHT22;10495;50.922;4.760;2023-10-09T00:27:47;18.00;88.80
20672;DHT22;10495;50.922;4.760;2023-10-09T00:30:15;18.00;88.90
20672;DHT22;10495;50.922;4.760;2023-10-09T00:32:45;17.90;89.00
20672;DHT22;10495;50.922;4.760;2023-10-09T00:35:25;17.90;89.20
20672;DHT22;10495;50.922;4.760;2023-10-09T00:38:23;18.00;88.90
20672;DHT22;10495;50.922;4.760;2023-10-09T00:40:52;18.10;88.70
20672;DHT22;10495;50.922;4.760;2023-10-09T00:43:33;18.10;88.30
20672;DHT22;10495;50.922;4.760;2023-10-09T00:46:02;18.20;88.20
20672;DHT22;10495;50.922;4.760;2023-10-09T00:48:30;18.20;87.90
20672;DHT22;10495;50.922;4.760;2023-10-09T00:50:59;18.10;88.00
20672;DHT22;10495;50.922;4.760;2023-10-09T00:53:27;18.10;87.90
20672;DHT22;10495;50.922;4.760;2023-10-09T00:56:01;18.10;88.00
20672;DHT22;10495;50.922;4.760;2023-10-09T00:58:47;18.20;87.70
20672;DHT22;10495;50.922;4.760;2023-10-09T01:01:14;18.20;87.80
20672;DHT22;10495;50.922;4.760;2023-10-09T01:03:43;18.10;87.80
20672;DHT22;10495;50.922;4.760;2023-10-09T01:06:16;18.20;87.80
20672;DHT22;10495;50.922;4.760;2023-10-09T01:08:42;18.10;87.90
20672;DHT22;10495;50.922;4.760;2023-10-09T01:11:12;18.10;88.50
20672;DHT22;10495;50.922;4.760;2023-10-09T01:13:47;18.10;88.20
20672;DHT22;10495;50.922;4.760;2023-10-09T01:16:17;18.10;88.00
20672;DHT22;10495;50.922;4.760;2023-10-09T01:18:43;18.20;87.90
20672;DHT22;10495;50.922;4.760;2023-10-09T01:21:10;18.20;87.90
20672;DHT22;10495;50.922;4.760;2023-10-09T01:23:44;18.00;87.90
20672;DHT22;10495;50.922;4.760;2023-10-09T01:26:32;18.10;88.00
20672;DHT22;10495;50.922;4.760;2023-10-09T01:29:14;18.10;88.00
20672;DHT22;10495;50.922;4.760;2023-10-09T01:31:53;18.20;87.60
20672;DHT22;10495;50.922;4.760;2023-10-09T01:34:23;18.30;87.50
20672;DHT22;10495;50.922;4.760;2023-10-09T01:37:24;18.20;87.30
20672;DHT22;10495;50.922;4.760;2023-10-09T01:39:58;18.30;87.20
20672;DHT22;10495;50.922;4.760;2023-10-09T01:42:25;18.20;87.00
20672;DHT22;10495;50.922;4.760;2023-10-09T01:45:11;18.30;86.80
20672;DHT22;10495;50.922;4.760;2023-10-09T01:47:37;18.50;85.70
20672;DHT22;10495;50.922;4.760;2023-10-09T01:50:07;18.60;85.20
20672;DHT22;10495;50.922;4.760;2023-10-09T01:52:45;18.60;84.20
20672;DHT22;10495;50.922;4.760;2023-10-09T01:55:11;18.60;84.20
20672;DHT22;10495;50.922;4.760;2023-10-09T01:58:01;18.80;83.10
20672;DHT22;10495;50.922;4.760;2023-10-09T02:00:56;18.80;82.60
20672;DHT22;10495;50.922;4.760;2023-10-09T02:03:22;18.80;82.60
20672;DHT22;10495;50.922;4.760;2023-10-09T02:05:54;18.90;82.60
20672;DHT22;10495;50.922;4.760;2023-10-09T02:08:25;19.00;82.10
20672;DHT22;10495;50.922;4.760;2023-10-09T02:10:53;18.80;82.60
20672;DHT22;10495;50.922;4.760;2023-10-09T02:13:22;18.60;83.10
20672;DHT22;10495;50.922;4.760;2023-10-09T02:15:56;18.60;83.20
20672;DHT22;10495;50.922;4.760;2023-10-09T02:18:38;18.60;83.30
20672;DHT22;10495;50.922;4.760;2023-10-09T02:23:50;18.50;83.40
20672;DHT22;10495;50.922;4.760;2023-10-09T02:26:18;18.50;83.70
20672;DHT22;10495;50.922;4.760;2023-10-09T02:29:05;18.50;83.70
20672;DHT22;10495;50.922;4.760;2023-10-09T02:31:31;18.40;83.90
20672;DHT22;10495;50.922;4.760;2023-10-09T02:34:09;18.40;84.00
20672;DHT22;10495;50.922;4.760;2023-10-09T02:36:36;18.30;83.80
20672;DHT22;10495;50.922;4.760;2023-10-09T02:39:07;18.30;83.90
20672;DHT22;10495;50.922;4.760;2023-10-09T02:41:52;18.30;84.00
20672;DHT22;10495;50.922;4.760;2023-10-09T02:44:20;18.20;83.90
20672;DHT22;10495;50.922;4.760;2023-10-09T02:46:50;18.30;84.10
20672;DHT22;10495;50.922;4.760;2023-10-09T02:49:16;18.20;83.80
20672;DHT22;10495;50.922;4.760;2023-10-09T02:51:41;18.10;83.90
20672;DHT22;10495;50.922;4.760;2023-10-09T02:54:13;18.10;84.20
20672;DHT22;10495;50.922;4.760;2023-10-09T02:56:51;18.00;84.40
20672;DHT22;10495;50.922;4.760;2023-10-09T02:59:20;18.10;84.50
20672;DHT22;10495;50.922;4.760;2023-10-09T03:01:47;18.00;84.40
20672;DHT22;10495;50.922;4.760;2023-10-09T03:04:14;18.00;84.40
20672;DHT22;10495;50.922;4.760;2023-10-09T03:06:41;18.00;84.50
20672;DHT22;10495;50.922;4.760;2023-10-09T03:09:25;18.00;84.50
20672;DHT22;10495;50.922;4.760;2023-10-09T03:11:56;18.00;84.50
20672;DHT22;10495;50.922;4.760;2023-10-09T03:14:28;18.00;84.60
20672;DHT22;10495;50.922;4.760;2023-10-09T03:16:54;17.90;85.10
20672;DHT22;10495;50.922;4.760;2023-10-09T03:19:22;17.90;85.50
20672;DHT22;10495;50.922;4.760;2023-10-09T03:21:48;17.90;85.60
20672;DHT22;10495;50.922;4.760;2023-10-09T03:24:13;17.90;85.60
20672;DHT22;10495;50.922;4.760;2023-10-09T03:26:41;18.00;85.10
20672;DHT22;10495;50.922;4.760;2023-10-09T03:29:10;18.10;85.20
20672;DHT22;10495;50.922;4.760;2023-10-09T03:31:39;18.10;85.20
20672;DHT22;10495;50.922;4.760;2023-10-09T03:34:05;18.00;85.10
20672;DHT22;10495;50.922;4.760;2023-10-09T03:36:31;18.10;85.10
20672;DHT22;10495;50.922;4.760;2023-10-09T03:39:03;18.00;85.10
20672;DHT22;10495;50.922;4.760;2023-10-09T03:41:33;18.00;85.20
20672;DHT22;10495;50.922;4.760;2023-10-09T03:44:05;17.90;85.20
20672;DHT22;10495;50.922;4.760;2023-10-09T03:46:32;17.80;85.30
20672;DHT22;10495;50.922;4.760;2023-10-09T03:49:02;17.90;85.30
20672;DHT22;10495;50.922;4.760;2023-10-09T03:51:35;17.90;85.20
20672;DHT22;10495;50.922;4.760;2023-10-09T03:54:03;17.80;85.10
20672;DHT22;10495;50.922;4.760;2023-10-09T03:56:35;17.70;85.00
20672;DHT22;10495;50.922;4.760;2023-10-09T03:59:01;17.80;85.20
20672;DHT22;10495;50.922;4.760;2023-10-09T04:01:29;17.80;85.20
20672;DHT22;10495;50.922;4.760;2023-10-09T04:03:55;17.70;85.90
20672;DHT22;10495;50.922;4.760;2023-10-09T04:06:25;17.60;86.40
20672;DHT22;10495;50.922;4.760;2023-10-09T04:08:57;17.50;87.00
20672;DHT22;10495;50.922;4.760;2023-10-09T04:11:24;17.50;86.70
20672;DHT22;10495;50.922;4.760;2023-10-09T04:13:50;17.50;86.70
20672;DHT22;10495;50.922;4.760;2023-10-09T04:16:18;17.40;87.80
20672;DHT22;10495;50.922;4.760;2023-10-09T04:19:02;17.40;87.40
20672;DHT22;10495;50.922;4.760;2023-10-09T04:21:34;17.50;87.10
20672;DHT22;10495;50.922;4.760;2023-10-09T04:24:07;17.70;86.70
20672;DHT22;10495;50.922;4.760;2023-10-09T04:26:40;17.70;86.70
20672;DHT22;10495;50.922;4.760;2023-10-09T04:29:13;17.70;86.60
20672;DHT22;10495;50.922;4.760;2023-10-09T04:31:56;17.70;86.60
20672;DHT22;10495;50.922;4.760;2023-10-09T04:34:26;17.70;86.50
20672;DHT22;10495;50.922;4.760;2023-10-09T04:36:57;17.70;86.80
20672;DHT22;10495;50.922;4.760;2023-10-09T04:39:29;17.80;86.50
20672;DHT22;10495;50.922;4.760;2023-10-09T04:41:58;17.60;86.60
20672;DHT22;10495;50.922;4.760;2023-10-09T04:44:43;17.50;87.00
20672;DHT22;10495;50.922;4.760;2023-10-09T04:47:33;17.50;87.20
20672;DHT22;10495;50.922;4.760;2023-10-09T04:50:04;17.50;87.20
20672;DHT22;10495;50.922;4.760;2023-10-09T04:52:33;17.50;87.30
20672;DHT22;10495;50.922;4.760;2023-10-09T04:55:00;17.60;86.80
20672;DHT22;10495;50.922;4.760;2023-10-09T04:57:38;17.70;86.70
20672;DHT22;10495;50.922;4.760;2023-10-09T05:00:16;17.70;86.50
20672;DHT22;10495;50.922;4.760;2023-10-09T05:02:51;17.60;86.80
20672;DHT22;10495;50.922;4.760;2023-10-09T05:05:21;17.60;86.90
20672;DHT22;10495;50.922;4.760;2023-10-09T05:08:05;17.50;86.90
20672;DHT22;10495;50.922;4.760;2023-10-09T05:10:51;17.50;87.20
20672;DHT22;10495;50.922;4.760;2023-10-09T05:13:22;17.50;87.10
20672;DHT22;10495;50.922;4.760;2023-10-09T05:18:51;17.60;86.70
20672;DHT22;10495;50.922;4.760;2023-10-09T05:21:33;17.50;87.00
20672;DHT22;10495;50.922;4.760;2023-10-09T05:24:09;17.50;87.10
20672;DHT22;10495;50.922;4.760;2023-10-09T05:26:51;17.50;87.20
20672;DHT22;10495;50.922;4.760;2023-10-09T05:29:19;17.50;87.20
20672;DHT22;10495;50.922;4.760;2023-10-09T05:32:02;17.40;87.20
20672;DHT22;10495;50.922;4.760;2023-10-09T05:34:33;17.50;87.20
20672;DHT22;10495;50.922;4.760;2023-10-09T05:37:03;17.60;86.90
20672;DHT22;10495;50.922;4.760;2023-10-09T05:39:48;17.70;86.90
20672;DHT22;10495;50.922;4.760;2023-10-09T05:45:09;17.40;87.00
20672;DHT22;10495;50.922;4.760;2023-10-09T05:47:48;17.30;87.70
20672;DHT22;10495;50.922;4.760;2023-10-09T05:50:27;17.30;87.80
20672;DHT22;10495;50.922;4.760;2023-10-09T05:52:57;17.20;87.90
20672;DHT22;10495;50.922;4.760;2023-10-09T05:55:30;17.20;88.10
20672;DHT22;10495;50.922;4.760;2023-10-09T05:58:34;17.30;87.90
20672;DHT22;10495;50.922;4.760;2023-10-09T06:01:28;17.30;88.00
20672;DHT22;10495;50.922;4.760;2023-10-09T06:04:12;17.30;88.10
20672;DHT22;10495;50.922;4.760;2023-10-09T06:06:43;17.40;87.80
20672;DHT22;10495;50.922;4.760;2023-10-09T06:09:21;17.20;88.00
20672;DHT22;10495;50.922;4.760;2023-10-09T06:11:48;17.50;87.80
20672;DHT22;10495;50.922;4.760;2023-10-09T06:14:22;17.40;87.70
20672;DHT22;10495;50.922;4.760;2023-10-09T06:16:54;17.40;87.90
20672;DHT22;10495;50.922;4.760;2023-10-09T06:19:26;17.60;87.70
20672;DHT22;10495;50.922;4.760;2023-10-09T06:21:59;17.50;87.80
20672;DHT22;10495;50.922;4.760;2023-10-09T06:24:37;17.40;87.70
20672;DHT22;10495;50.922;4.760;2023-10-09T06:27:03;17.30;88.40
20672;DHT22;10495;50.922;4.760;2023-10-09T06:29:31;17.20;88.40
20672;DHT22;10495;50.922;4.760;2023-10-09T06:32:11;17.40;88.30
20672;DHT22;10495;50.922;4.760;2023-10-09T06:35:00;17.50;87.90
20672;DHT22;10495;50.922;4.760;2023-10-09T06:37:45;17.50;87.90
20672;DHT22;10495;50.922;4.760;2023-10-09T06:40:35;17.30;88.00
20672;DHT22;10495;50.922;4.760;2023-10-09T06:43:20;17.30;88.20
20672;DHT22;10495;50.922;4.760;2023-10-09T06:45:58;17.40;88.20
20672;DHT22;10495;50.922;4.760;2023-10-09T06:48:44;17.50;87.90
20672;DHT22;10495;50.922;4.760;2023-10-09T06:51:22;17.50;88.10
20672;DHT22;10495;50.922;4.760;2023-10-09T06:53:48;17.50;87.80
20672;DHT22;10495;50.922;4.760;2023-10-09T06:58:50;17.50;87.90
20672;DHT22;10495;50.922;4.760;2023-10-09T07:01:21;17.60;88.00
20672;DHT22;10495;50.922;4.760;2023-10-09T07:03:53;17.50;87.90
20672;DHT22;10495;50.922;4.760;2023-10-09T07:06:20;17.50;88.10
20672;DHT22;10495;50.922;4.760;2023-10-09T07:08:53;17.60;88.10
20672;DHT22;10495;50.922;4.760;2023-10-09T07:11:57;17.60;88.00
20672;DHT22;10495;50.922;4.760;2023-10-09T07:14:24;17.80;87.60
20672;DHT22;10495;50.922;4.760;2023-10-09T07:16:56;17.80;87.70
20672;DHT22;10495;50.922;4.760;2023-10-09T07:19:27;17.80;87.80
20672;DHT22;10495;50.922;4.760;2023-10-09T07:22:08;17.90;87.70
20672;DHT22;10495;50.922;4.760;2023-10-09T07:24:53;18.00;87.70
20672;DHT22;10495;50.922;4.760;2023-10-09T07:30:07;18.00;87.70
20672;DHT22;10495;50.922;4.760;2023-10-09T07:35:34;18.30;86.90
20672;DHT22;10495;50.922;4.760;2023-10-09T07:38:09;18.20;87.10
20672;DHT22;10495;50.922;4.760;2023-10-09T07:40:36;18.40;87.10
20672;DHT22;10495;50.922;4.760;2023-10-09T07:43:21;18.40;86.80
20672;DHT22;10495;50.922;4.760;2023-10-09T07:45:52;18.40;86.90
20672;DHT22;10495;50.922;4.760;2023-10-09T07:48:24;18.50;87.00
20672;DHT22;10495;50.922;4.760;2023-10-09T07:51:04;18.60;87.30
20672;DHT22;10495;50.922;4.760;2023-10-09T07:53:36;18.80;86.60
20672;DHT22;10495;50.922;4.760;2023-10-09T07:56:09;19.20;85.80
20672;DHT22;10495;50.922;4.760;2023-10-09T07:58:34;19.40;85.40
20672;DHT22;10495;50.922;4.760;2023-10-09T08:01:12;19.60;84.40
20672;DHT22;10495;50.922;4.760;2023-10-09T08:04:13;19.70;84.00
20672;DHT22;10495;50.922;4.760;2023-10-09T08:06:41;19.80;83.30
20672;DHT22;10495;50.922;4.760;2023-10-09T08:09:10;20.00;82.90
20672;DHT22;10495;50.922;4.760;2023-10-09T08:11:40;20.10;82.60
20672;DHT22;10495;50.922;4.760;2023-10-09T08:14:06;20.00;82.90
20672;DHT22;10495;50.922;4.760;2023-10-09T08:16:46;20.00;83.10
20672;DHT22;10495;50.922;4.760;2023-10-09T08:19:11;20.10;83.20
20672;DHT22;10495;50.922;4.760;2023-10-09T08:21:56;20.20;83.20
20672;DHT22;10495;50.922;4.760;2023-10-09T08:24:39;20.20;82.20
20672;DHT22;10495;50.922;4.760;2023-10-09T08:27:09;20.20;82.00
20672;DHT22;10495;50.922;4.760;2023-10-09T08:30:13;20.20;81.70
20672;DHT22;10495;50.922;4.760;2023-10-09T08:32:49;20.10;81.90
20672;DHT22;10495;50.922;4.760;2023-10-09T08:35:34;20.10;81.60
20672;DHT22;10495;50.922;4.760;2023-10-09T08:38:17;20.10;82.80
20672;DHT22;10495;50.922;4.760;2023-10-09T08:40:50;20.20;82.90
20672;DHT22;10495;50.922;4.760;2023-10-09T08:43:20;20.40;82.50
20672;DHT22;10495;50.922;4.760;2023-10-09T08:45:54;20.60;82.50
20672;DHT22;10495;50.922;4.760;2023-10-09T08:48:20;20.70;82.00
20672;DHT22;10495;50.922;4.760;2023-10-09T08:50:52;21.00;82.30
20672;DHT22;10495;50.922;4.760;2023-10-09T08:53:22;21.30;81.40
20672;DHT22;10495;50.922;4.760;2023-10-09T08:55:49;21.50;81.00
20672;DHT22;10495;50.922;4.760;2023-10-09T08:58:17;21.60;80.40
20672;DHT22;10495;50.922;4.760;2023-10-09T09:01:00;21.80;80.60
20672;DHT22;10495;50.922;4.760;2023-10-09T09:03:26;21.90;80.20
20672;DHT22;10495;50.922;4.760;2023-10-09T09:05:59;21.90;79.70
20672;DHT22;10495;50.922;4.760;2023-10-09T09:08:30;22.10;78.30
20672;DHT22;10495;50.922;4.760;2023-10-09T09:11:12;22.20;78.60
20672;DHT22;10495;50.922;4.760;2023-10-09T09:13:41;22.30;78.40
20672;DHT22;10495;50.922;4.760;2023-10-09T09:16:20;22.40;78.50
20672;DHT22;10495;50.922;4.760;2023-10-09T09:18:53;22.80;77.90
20672;DHT22;10495;50.922;4.760;2023-10-09T09:21:47;22.90;77.70
20672;DHT22;10495;50.922;4.760;2023-10-09T09:24:13;23.20;77.60
20672;DHT22;10495;50.922;4.760;2023-10-09T09:26:49;23.30;77.00
20672;DHT22;10495;50.922;4.760;2023-10-09T09:32:02;23.90;75.80
20672;DHT22;10495;50.922;4.760;2023-10-09T09:34:46;24.00;74.80
20672;DHT22;10495;50.922;4.760;2023-10-09T09:37:19;24.10;73.70
20672;DHT22;10495;50.922;4.760;2023-10-09T09:39:46;23.90;72.40
20672;DHT22;10495;50.922;4.760;2023-10-09T09:42:14;23.80;73.00
20672;DHT22;10495;50.922;4.760;2023-10-09T09:44:40;24.10;72.90
20672;DHT22;10495;50.922;4.760;2023-10-09T09:47:12;24.00;72.60
20672;DHT22;10495;50.922;4.760;2023-10-09T09:49:41;24.00;72.60
20672;DHT22;10495;50.922;4.760;2023-10-09T09:52:11;24.00;72.20
20672;DHT22;10495;50.922;4.760;2023-10-09T09:54:40;23.80;72.50
20672;DHT22;10495;50.922;4.760;2023-10-09T09:57:07;23.80;73.00
20672;DHT22;10495;50.922;4.760;2023-10-09T09:59:39;23.80;73.50
20672;DHT22;10495;50.922;4.760;2023-10-09T10:02:36;23.90;72.80
20672;DHT22;10495;50.922;4.760;2023-10-09T10:05:06;23.80;72.00
20672;DHT22;10495;50.922;4.760;2023-10-09T10:07:35;24.00;70.80
20672;DHT22;10495;50.922;4.760;2023-10-09T10:10:38;23.70;71.10
20672;DHT22;10495;50.922;4.760;2023-10-09T10:13:05;23.70;71.50
20672;DHT22;10495;50.922;4.760;2023-10-09T10:18:32;23.40;71.60
20672;DHT22;10495;50.922;4.760;2023-10-09T10:21:10;23.40;72.20
20672;DHT22;10495;50.922;4.760;2023-10-09T10:23:46;23.50;72.10
20672;DHT22;10495;50.922;4.760;2023-10-09T10:26:20;23.30;72.70
20672;DHT22;10495;50.922;4.760;2023-10-09T10:29:21;23.20;73.40
20672;DHT22;10495;50.922;4.760;2023-10-09T10:32:03;23.30;74.10
20672;DHT22;10495;50.922;4.760;2023-10-09T10:34:53;23.30;74.20
20672;DHT22;10495;50.922;4.760;2023-10-09T10:37:42;23.40;73.90
20672;DHT22;10495;50.922;4.760;2023-10-09T10:40:23;23.60;72.10
20672;DHT22;10495;50.922;4.760;2023-10-09T10:43:04;23.70;73.00
20672;DHT22;10495;50.922;4.760;2023-10-09T10:45:39;23.70;70.80
20672;DHT22;10495;50.922;4.760;2023-10-09T10:48:11;23.60;70.40
20672;DHT22;10495;50.922;4.760;2023-10-09T10:50:59;23.50;71.30
20672;DHT22;10495;50.922;4.760;2023-10-09T10:53:26;23.40;72.00
20672;DHT22;10495;50.922;4.760;2023-10-09T10:56:03;23.60;72.30
20672;DHT22;10495;50.922;4.760;2023-10-09T10:58:38;23.50;70.60
20672;DHT22;10495;50.922;4.760;2023-10-09T11:01:04;23.50;70.30
20672;DHT22;10495;50.922;4.760;2023-10-09T11:03:41;23.40;71.10
20672;DHT22;10495;50.922;4.760;2023-10-09T11:06:31;23.40;70.80
20672;DHT22;10495;50.922;4.760;2023-10-09T11:09:09;23.40;71.10
20672;DHT22;10495;50.922;4.760;2023-10-09T11:11:50;23.50;71.00
20672;DHT22;10495;50.922;4.760;2023-10-09T11:14:47;23.40;71.70
20672;DHT22;10495;50.922;4.760;2023-10-09T11:17:32;23.30;72.60
20672;DHT22;10495;50.922;4.760;2023-10-09T11:19:58;23.40;72.40
20672;DHT22;10495;50.922;4.760;2023-10-09T11:22:44;23.50;72.30
20672;DHT22;10495;50.922;4.760;2023-10-09T11:25:30;23.50;71.60
20672;DHT22;10495;50.922;4.760;2023-10-09T11:27:56;23.60;71.40
20672;DHT22;10495;50.922;4.760;2023-10-09T11:30:31;23.60;71.40
20672;DHT22;10495;50.922;4.760;2023-10-09T11:33:07;23.50;71.30
20672;DHT22;10495;50.922;4.760;2023-10-09T11:35:40;23.50;72.40
20672;DHT22;10495;50.922;4.760;2023-10-09T11:38:08;23.50;72.20
20672;DHT22;10495;50.922;4.760;2023-10-09T11:40:47;23.50;72.70
20672;DHT22;10495;50.922;4.760;2023-10-09T11:43:19;23.60;72.40
20672;DHT22;10495;50.922;4.760;2023-10-09T11:46:11;23.60;72.00
20672;DHT22;10495;50.922;4.760;2023-10-09T11:48:37;23.60;71.70
20672;DHT22;10495;50.922;4.760;2023-10-09T11:51:23;23.60;72.60
20672;DHT22;10495;50.922;4.760;2023-10-09T11:53:48;23.40;72.70
20672;DHT22;10495;50.922;4.760;2023-10-09T11:56:22;23.60;73.70
20672;DHT22;10495;50.922;4.760;2023-10-09T11:58:52;23.70;72.70
20672;DHT22;10495;50.922;4.760;2023-10-09T12:01:18;23.70;71.90
20672;DHT22;10495;50.922;4.760;2023-10-09T12:03:49;23.70;71.50
20672;DHT22;10495;50.922;4.760;2023-10-09T12:06:16;23.70;72.70
20672;DHT22;10495;50.922;4.760;2023-10-09T12:08:45;23.60;71.20
20672;DHT22;10495;50.922;4.760;2023-10-09T12:11:17;23.80;70.90
20672;DHT22;10495;50.922;4.760;2023-10-09T12:13:54;23.90;70.40
20672;DHT22;10495;50.922;4.760;2023-10-09T12:16:24;23.60;70.00
20672;DHT22;10495;50.922;4.760;2023-10-09T12:18:54;23.50;70.80
20672;DHT22;10495;50.922;4.760;2023-10-09T12:21:23;23.60;71.80
20672;DHT22;10495;50.922;4.760;2023-10-09T12:23:49;23.50;71.80
20672;DHT22;10495;50.922;4.760;2023-10-09T12:26:14;23.60;72.00
20672;DHT22;10495;50.922;4.760;2023-10-09T12:28:41;23.60;70.50
20672;DHT22;10495;50.922;4.760;2023-10-09T12:31:14;23.60;69.20
20672;DHT22;10495;50.922;4.760;2023-10-09T12:33:46;23.60;71.20
20672;DHT22;10495;50.922;4.760;2023-10-09T12:36:13;23.60;71.50
20672;DHT22;10495;50.922;4.760;2023-10-09T12:38:46;23.50;71.70
20672;DHT22;10495;50.922;4.760;2023-10-09T12:41:15;23.60;71.60
20672;DHT22;10495;50.922;4.760;2023-10-09T12:43:51;23.70;72.20
20672;DHT22;10495;50.922;4.760;2023-10-09T12:46:18;23.70;72.00
20672;DHT22;10495;50.922;4.760;2023-10-09T12:48:48;23.80;71.90
20672;DHT22;10495;50.922;4.760;2023-10-09T12:51:15;23.70;71.80
20672;DHT22;10495;50.922;4.760;2023-10-09T12:53:44;23.70;72.10
20672;DHT22;10495;50.922;4.760;2023-10-09T12:56:11;23.60;71.50
20672;DHT22;10495;50.922;4.760;2023-10-09T12:58:41;23.60;71.80
20672;DHT22;10495;50.922;4.760;2023-10-09T13:01:18;23.60;72.30
20672;DHT22;10495;50.922;4.760;2023-10-09T13:03:45;23.50;71.80
20672;DHT22;10495;50.922;4.760;2023-10-09T13:06:15;23.40;73.10
20672;DHT22;10495;50.922;4.760;2023-10-09T13:08:41;23.50;73.40
20672;DHT22;10495;50.922;4.760;2023-10-09T13:11:11;23.50;72.50
20672;DHT22;10495;50.922;4.760;2023-10-09T13:13:41;23.40;72.90
20672;DHT22;10495;50.922;4.760;2023-10-09T13:18:39;23.40;73.60
20672;DHT22;10495;50.922;4.760;2023-10-09T13:21:05;23.50;73.30
20672;DHT22;10495;50.922;4.760;2023-10-09T13:23:31;23.40;73.10
20672;DHT22;10495;50.922;4.760;2023-10-09T13:26:13;23.40;74.10
20672;DHT22;10495;50.922;4.760;2023-10-09T13:28:50;23.30;73.80
20672;DHT22;10495;50.922;4.760;2023-10-09T13:31:16;23.20;74.20
20672;DHT22;10495;50.922;4.760;2023-10-09T13:33:43;23.30;74.20
20672;DHT22;10495;50.922;4.760;2023-10-09T13:36:10;23.30;74.40
20672;DHT22;10495;50.922;4.760;2023-10-09T13:38:55;23.30;73.60
20672;DHT22;10495;50.922;4.760;2023-10-09T13:41:22;23.30;74.40
20672;DHT22;10495;50.922;4.760;2023-10-09T13:43:51;23.40;74.60
20672;DHT22;10495;50.922;4.760;2023-10-09T13:46:18;23.50;74.70
20672;DHT22;10495;50.922;4.760;2023-10-09T13:48:44;23.50;74.50
20672;DHT22;10495;50.922;4.760;2023-10-09T13:51:12;23.40;73.90
20672;DHT22;10495;50.922;4.760;2023-10-09T13:53:45;23.50;74.60
20672;DHT22;10495;50.922;4.760;2023-10-09T13:56:16;23.50;74.70
20672;DHT22;10495;50.922;4.760;2023-10-09T13:58:50;23.50;74.80
20672;DHT22;10495;50.922;4.760;2023-10-09T14:01:20;23.50;74.30
20672;DHT22;10495;50.922;4.760;2023-10-09T14:03:56;23.50;74.30
20672;DHT22;10495;50.922;4.760;2023-10-09T14:06:26;23.40;75.30
20672;DHT22;10495;50.922;4.760;2023-10-09T14:11:25;23.40;74.80
20672;DHT22;10495;50.922;4.760;2023-10-09T14:13:52;23.40;74.60
20672;DHT22;10495;50.922;4.760;2023-10-09T14:16:18;23.20;73.60
20672;DHT22;10495;50.922;4.760;2023-10-09T14:18:53;23.20;74.30
20672;DHT22;10495;50.922;4.760;2023-10-09T14:21:20;23.20;73.70
20672;DHT22;10495;50.922;4.760;2023-10-09T14:23:45;23.20;73.80
20672;DHT22;10495;50.922;4.760;2023-10-09T14:26:14;23.20;74.30
20672;DHT22;10495;50.922;4.760;2023-10-09T14:28:40;23.10;74.80
20672;DHT22;10495;50.922;4.760;2023-10-09T14:31:08;23.20;73.70
20672;DHT22;10495;50.922;4.760;2023-10-09T14:33:37;23.10;73.90
20672;DHT22;10495;50.922;4.760;2023-10-09T14:36:04;23.10;74.10
20672;DHT22;10495;50.922;4.760;2023-10-09T14:38:31;23.10;74.20
20672;DHT22;10495;50.922;4.760;2023-10-09T14:40:58;23.00;74.20
20672;DHT22;10495;50.922;4.760;2023-10-09T14:43:26;23.10;74.50
20672;DHT22;10495;50.922;4.760;2023-10-09T14:45:58;23.00;74.50
20672;DHT22;10495;50.922;4.760;2023-10-09T14:48:24;23.00;74.70
20672;DHT22;10495;50.922;4.760;2023-10-09T14:50:55;23.00;74.70
20672;DHT22;10495;50.922;4.760;2023-10-09T14:53:30;23.00;74.40
20672;DHT22;10495;50.922;4.760;2023-10-09T14:55:56;23.00;74.70
20672;DHT22;10495;50.922;4.760;2023-10-09T14:58:22;23.10;74.80
20672;DHT22;10495;50.922;4.760;2023-10-09T15:00:51;23.20;74.10
20672;DHT22;10495;50.922;4.760;2023-10-09T15:03:18;23.00;74.50
20672;DHT22;10495;50.922;4.760;2023-10-09T15:05:46;22.90;74.70
20672;DHT22;10495;50.922;4.760;2023-10-09T15:08:11;22.80;75.00
20672;DHT22;10495;50.922;4.760;2023-10-09T15:10:47;22.80;75.30
20672;DHT22;10495;50.922;4.760;2023-10-09T15:13:16;22.80;75.40
20672;DHT22;10495;50.922;4.760;2023-10-09T15:15:45;22.70;75.40
20672;DHT22;10495;50.922;4.760;2023-10-09T15:18:11;22.60;75.70
20672;DHT22;10495;50.922;4.760;2023-10-09T15:20:40;22.60;75.90
20672;DHT22;10495;50.922;4.760;2023-10-09T15:23:07;22.60;76.10
20672;DHT22;10495;50.922;4.760;2023-10-09T15:25:33;22.70;76.30
20672;DHT22;10495;50.922;4.760;2023-10-09T15:28:01;22.70;76.90
20672;DHT22;10495;50.922;4.760;2023-10-09T15:30:28;22.60;76.60
20672;DHT22;10495;50.922;4.760;2023-10-09T15:32:54;22.70;76.80
20672;DHT22;10495;50.922;4.760;2023-10-09T15:35:22;22.70;76.60
20672;DHT22;10495;50.922;4.760;2023-10-09T15:37:51;22.70;76.80
20672;DHT22;10495;50.922;4.760;2023-10-09T15:40:18;22.70;76.80
20672;DHT22;10495;50.922;4.760;2023-10-09T15:42:49;22.70;76.90
20672;DHT22;10495;50.922;4.760;2023-10-09T15:45:17;22.60;76.80
20672;DHT22;10495;50.922;4.760;2023-10-09T15:47:51;22.60;76.80
20672;DHT22;10495;50.922;4.760;2023-10-09T15:50:17;22.50;76.90
20672;DHT22;10495;50.922;4.760;2023-10-09T15:52:43;22.50;77.10
20672;DHT22;10495;50.922;4.760;2023-10-09T15:55:09;22.40;77.30
20672;DHT22;10495;50.922;4.760;2023-10-09T15:57:41;22.30;78.40
20672;DHT22;10495;50.922;4.760;2023-10-09T16:00:08;22.30;78.30
20672;DHT22;10495;50.922;4.760;2023-10-09T16:02:49;22.30;78.50
20672;DHT22;10495;50.922;4.760;2023-10-09T16:05:18;22.20;78.70
20672;DHT22;10495;50.922;4.760;2023-10-09T16:07:44;22.10;78.90
20672;DHT22;10495;50.922;4.760;2023-10-09T16:10:10;22.10;78.90
20672;DHT22;10495;50.922;4.760;2023-10-09T16:12:40;22.00;79.00
20672;DHT22;10495;50.922;4.760;2023-10-09T16:15:09;22.00;79.40
20672;DHT22;10495;50.922;4.760;2023-10-09T16:17:36;21.90;79.70
20672;DHT22;10495;50.922;4.760;2023-10-09T16:20:05;21.80;79.60
20672;DHT22;10495;50.922;4.760;2023-10-09T16:22:39;21.80;79.80
20672;DHT22;10495;50.922;4.760;2023-10-09T16:25:05;21.70;79.90
20672;DHT22;10495;50.922;4.760;2023-10-09T16:27:35;21.70;79.90
20672;DHT22;10495;50.922;4.760;2023-10-09T16:30:01;21.60;80.00
20672;DHT22;10495;50.922;4.760;2023-10-09T16:32:31;21.50;80.10
20672;DHT22;10495;50.922;4.760;2023-10-09T16:34:57;21.40;80.80